createdAt,value
2016-04-28T00:02:05.999Z,2.2
2016-04-28T00:05:18.227Z,2.2
2016-04-28T00:08:32.783Z,2.2
2016-04-28T00:11:35.120Z,2.3
2016-04-28T00:14:44.596Z,2.3
2016-04-28T00:17:51.292Z,2.4
2016-04-28T00:21:05.394Z,2.4
2016-04-28T00:24:17.214Z,2.4
2016-04-28T00:27:34.506Z,2.5
2016-04-28T00:30:36.842Z,2.5
2016-04-28T00:33:49.085Z,2.6
2016-04-28T00:37:01.327Z,2.6
2016-04-28T00:40:10.616Z,2.6
2016-04-28T00:43:23.079Z,2.6
2016-04-28T00:46:35.151Z,2.6
2016-04-28T00:49:47.143Z,2.5
2016-04-28T00:52:59.198Z,2.5
2016-04-28T00:56:11.550Z,2.5
2016-04-28T00:59:23.871Z,2.4
2016-04-28T01:02:38.491Z,2.4
2016-04-28T01:05:40.686Z,2.3
2016-04-28T01:08:52.991Z,2.3
2016-04-28T01:12:08.062Z,2.3
2016-04-28T01:15:17.273Z,2.2
2016-04-28T01:18:34.456Z,2.2
2016-04-28T01:21:36.839Z,2.2
2016-04-28T01:24:46.862Z,2
2016-04-28T01:27:58.777Z,2
2016-04-28T01:31:11.254Z,1.9
2016-04-28T01:34:23.215Z,2
2016-04-28T01:37:35.227Z,2
2016-04-28T01:40:47.343Z,2
2016-04-28T01:43:59.321Z,2
2016-04-28T01:47:11.719Z,2
2016-04-28T01:50:24.023Z,2
2016-04-28T01:53:35.941Z,2
2016-04-28T01:56:47.870Z,2
2016-04-28T02:00:00.067Z,2.1
2016-04-28T02:03:12.215Z,2.1
2016-04-28T02:06:24.160Z,2.2
2016-04-28T02:09:34.421Z,2.1
2016-04-28T02:12:48.554Z,2.1
2016-04-28T02:16:00.375Z,2.1
2016-04-28T02:19:12.696Z,2.2
2016-04-28T02:22:25.125Z,2.2
2016-04-28T02:25:37.142Z,2.2
2016-04-28T02:28:48.854Z,2.2
2016-04-28T02:32:01.064Z,2.2
2016-04-28T02:35:13.384Z,2.2
2016-04-28T02:38:30.222Z,2.3
2016-04-28T02:41:37.545Z,2.3
2016-04-28T02:44:39.834Z,2.2
2016-04-28T02:47:51.888Z,2.2
2016-04-28T02:51:04.131Z,2.2
2016-04-28T02:54:16.358Z,2.3
2016-04-28T02:57:33.476Z,2.3
2016-04-28T03:00:36.096Z,2.4
2016-04-28T03:03:48.197Z,2.4
2016-04-28T03:06:58.580Z,2.4
2016-04-28T03:10:12.839Z,2.4
2016-04-28T03:13:24.925Z,2.4
2016-04-28T03:16:37.107Z,2.4
2016-04-28T03:19:47.802Z,2.4
2016-04-28T03:23:00.155Z,2.3
2016-04-28T03:26:12.616Z,2.3
2016-04-28T03:29:22.154Z,2.3
2016-04-28T03:32:39.181Z,2.3
2016-04-28T03:35:41.595Z,2.3
2016-04-28T03:38:53.620Z,2.4
2016-04-28T03:42:06.034Z,2.4
2016-04-28T03:45:18.557Z,2.4
2016-04-28T03:48:35.772Z,2.5
2016-04-28T03:51:38.045Z,2.5
2016-04-28T03:54:50.053Z,2.5
2016-04-28T03:58:02.374Z,2.5
2016-04-28T04:01:14.554Z,2.5
2016-04-28T04:04:31.812Z,2.5
2016-04-28T04:07:39.119Z,2.6
2016-04-28T04:10:41.456Z,2.5
2016-04-28T04:13:50.823Z,2.5
2016-04-28T04:17:03.019Z,2.5
2016-04-28T04:20:15.416Z,2.5
2016-04-28T04:23:32.644Z,2.5
2016-04-28T04:26:40.030Z,2.5
2016-04-28T04:29:42.429Z,2.5
2016-04-28T04:32:54.687Z,2.6
2016-04-28T04:36:06.944Z,2.5
2016-04-28T04:39:19.109Z,2.7
2016-04-28T04:42:36.385Z,2.8
2016-04-28T04:45:38.737Z,2.8
2016-04-28T04:48:51.167Z,2.9
2016-04-28T04:52:03.628Z,2.9
2016-04-28T04:55:15.902Z,3
2016-04-28T04:58:32.957Z,3
2016-04-28T05:01:35.418Z,3
2016-04-28T05:04:47.679Z,3.2
2016-04-28T05:08:00.000Z,3.3
2016-04-28T05:11:12.428Z,3.3
2016-04-28T05:14:24.703Z,3.2
2016-04-28T05:17:36.980Z,3.1
2016-04-28T05:20:49.409Z,3.3
2016-04-28T05:24:01.854Z,3.6
2016-04-28T05:27:14.207Z,3.7
2016-04-28T05:30:31.449Z,3.7
2016-04-28T05:33:38.897Z,3.6
2016-04-28T05:36:41.295Z,3.6
2016-04-28T05:39:53.789Z,3.7
2016-04-28T05:43:06.359Z,3.6
2016-04-28T05:46:18.805Z,3.6
2016-04-28T05:49:36.188Z,3.6
2016-04-28T05:52:38.761Z,3.7
2016-04-28T05:55:49.129Z,3.7
2016-04-28T05:59:03.777Z,3.8
2016-04-28T06:02:16.567Z,4.4
2016-04-28T06:05:34.322Z,4.6
2016-04-28T06:08:37.036Z,4.5
2016-04-28T06:11:49.954Z,4.4
2016-04-28T06:15:01.946Z,4.2
2016-04-28T06:18:12.555Z,4.1
2016-04-28T06:21:24.710Z,3.9
2016-04-28T06:24:36.813Z,3.8
2016-04-28T06:27:47.312Z,3.9
2016-04-28T06:31:01.680Z,4
2016-04-28T06:34:14.173Z,4
2016-04-28T06:37:31.587Z,3.9
2016-04-28T06:40:39.051Z,3.9
2016-04-28T06:43:41.465Z,3.8
2016-04-28T06:46:53.208Z,3.7
2016-04-28T06:50:03.372Z,3.6
2016-04-28T06:53:17.458Z,3.6
2016-04-28T06:56:35.107Z,3.5
2016-04-28T06:59:35.365Z,3.5
2016-04-28T07:02:49.876Z,3.7
2016-04-28T07:06:02.399Z,3.9
2016-04-28T07:09:14.923Z,4
2016-04-28T07:12:32.056Z,4
2016-04-28T07:15:39.329Z,4
2016-04-28T07:18:41.887Z,4.1
2016-04-28T07:21:54.223Z,4.3
2016-04-28T07:25:06.654Z,4.7
2016-04-28T07:28:18.990Z,4.7
2016-04-28T07:31:36.436Z,4.8
2016-04-28T07:34:38.836Z,4.8
2016-04-28T07:37:51.267Z,4.6
2016-04-28T07:41:03.900Z,4.8
2016-04-28T07:44:16.612Z,5.8
2016-04-28T07:47:33.417Z,6.4
2016-04-28T07:50:35.987Z,6.2
2016-04-28T07:53:48.576Z,6
2016-04-28T07:57:01.757Z,7.5
2016-04-28T08:00:14.358Z,7.1
2016-04-28T08:03:31.569Z,6.5
2016-04-28T08:06:39.249Z,6
2016-04-28T08:09:39.800Z,5.6
2016-04-28T08:12:54.061Z,5.3
2016-04-28T08:16:06.725Z,5.6
2016-04-28T08:19:19.374Z,5.8
2016-04-28T08:22:36.850Z,6.2
2016-04-28T08:25:39.624Z,6.3
2016-04-28T08:28:49.558Z,6.3
2016-04-28T08:32:00.143Z,6.3
2016-04-28T08:35:14.416Z,5.9
2016-04-28T08:38:31.799Z,5.8
2016-04-28T08:41:39.574Z,6.1
2016-04-28T08:44:42.350Z,6.7
2016-04-28T08:47:54.795Z,6.7
2016-04-28T08:51:07.367Z,6.2
2016-04-28T08:54:17.733Z,6
2016-04-28T08:57:36.101Z,5.8
2016-04-28T09:00:37.812Z,5.7
2016-04-28T09:03:50.167Z,5.7
2016-04-28T09:07:02.316Z,5.6
2016-04-28T09:10:15.214Z,5.5
2016-04-28T09:16:40.402Z,5.8
2016-04-28T09:19:42.989Z,5.8
2016-04-28T09:22:55.436Z,5.9
2016-04-28T09:26:06.304Z,5.9
2016-04-28T09:29:19.140Z,6.1
2016-04-28T09:32:36.616Z,6.7
2016-04-28T09:35:39.421Z,7
2016-04-28T09:38:52.042Z,7
2016-04-28T09:42:05.065Z,6.9
2016-04-28T09:45:17.168Z,7.1
2016-04-28T09:48:34.769Z,7.1
2016-04-28T09:51:37.481Z,7.6
2016-04-28T09:54:50.491Z,9.4
2016-04-28T09:58:03.233Z,9.3
2016-04-28T10:01:15.195Z,8.7
2016-04-28T10:04:32.875Z,8.2
2016-04-28T10:07:35.664Z,7.8
2016-04-28T10:10:46.222Z,8.5
2016-04-28T10:14:00.792Z,8.8
2016-04-28T10:17:11.644Z,8.9
2016-04-28T10:20:31.245Z,8.8
2016-04-28T10:23:38.942Z,8.5
2016-04-28T10:26:41.481Z,8.1
2016-04-28T10:29:54.023Z,7.4
2016-04-28T10:33:10.547Z,6.7
2016-04-28T10:36:18.805Z,6.3
2016-04-28T10:39:35.749Z,5.9
2016-04-28T10:42:38.180Z,5.7
2016-04-28T10:45:50.707Z,5.8
2016-04-28T10:49:00.871Z,6.4
2016-04-28T10:52:13.832Z,7.1
2016-04-28T10:55:31.590Z,7.4
2016-04-28T10:58:39.380Z,7.3
2016-04-28T11:01:41.950Z,7.2
2016-04-28T11:04:58.664Z,7.1
2016-04-28T11:08:06.907Z,7.1
2016-04-28T11:11:19.555Z,7.2
2016-04-28T11:14:37.282Z,6.8
2016-04-28T11:17:39.649Z,6.2
2016-04-28T11:20:52.013Z,5.7
2016-04-28T11:24:04.444Z,5.5
2016-04-28T11:27:17.577Z,5.5
2016-04-28T11:30:25.538Z,5.7
2016-04-28T11:33:38.312Z,6.1
2016-04-28T11:36:50.821Z,6.4
2016-04-28T11:40:03.409Z,6.5
2016-04-28T11:43:15.604Z,6.4
2016-04-28T11:46:32.878Z,6.3
2016-04-28T11:49:40.448Z,6.5
2016-04-28T11:52:43.176Z,6.7
2016-04-28T11:55:53.545Z,6.9
2016-04-28T11:59:06.303Z,7.1
2016-04-28T12:02:18.936Z,7.4
2016-04-28T12:05:36.476Z,7.3
2016-04-28T12:08:39.030Z,7.1
2016-04-28T12:11:51.495Z,7
2016-04-28T12:15:04.081Z,7.3
2016-04-28T12:18:16.370Z,7.7
2016-04-28T12:21:34.051Z,7.8
2016-04-28T12:24:36.698Z,8
2016-04-28T12:27:49.410Z,8.2
2016-04-28T12:31:02.296Z,8.4
2016-04-28T12:34:14.836Z,8.6
2016-04-28T12:37:32.140Z,8.5
2016-04-28T12:40:39.946Z,8.2
2016-04-28T12:43:42.547Z,7.8
2016-04-28T12:46:55.120Z,7.6
2016-04-28T12:50:07.706Z,7.3
2016-04-28T12:53:20.183Z,7.3
2016-04-28T12:56:37.550Z,7.6
2016-04-28T12:59:40.292Z,7.9
2016-04-28T13:02:53.161Z,8.1
2016-04-28T13:06:05.530Z,8.1
2016-04-28T13:09:18.086Z,8
2016-04-28T13:12:35.938Z,8
2016-04-28T13:15:38.507Z,8
2016-04-28T13:18:51.079Z,8.2
2016-04-28T13:22:03.715Z,8.4
2016-04-28T13:25:16.503Z,8.5
2016-04-28T13:28:33.870Z,8.4
2016-04-28T13:31:36.661Z,8.4
2016-04-28T13:34:49.386Z,8.6
2016-04-28T13:38:01.991Z,8.6
2016-04-28T13:41:14.469Z,8.6
2016-04-28T13:44:32.054Z,8.7
2016-04-28T13:47:39.938Z,8.8
2016-04-28T13:50:42.695Z,8.8
2016-04-28T13:53:55.391Z,8.8
2016-04-28T13:57:08.511Z,8.8
2016-04-28T14:00:21.067Z,8.9
2016-04-28T14:03:38.777Z,8.9
2016-04-28T14:06:41.645Z,9
2016-04-28T14:09:54.419Z,8.9
2016-04-28T14:13:06.835Z,8.8
2016-04-28T14:16:19.235Z,8.7
2016-04-28T14:19:36.961Z,8.7
2016-04-28T14:22:39.701Z,8.6
2016-04-28T14:25:49.288Z,8.5
2016-04-28T14:29:01.861Z,8.5
2016-04-28T14:32:14.542Z,8.6
2016-04-28T14:35:31.970Z,8.5
2016-04-28T14:38:39.729Z,8.5
2016-04-28T14:41:42.394Z,8.4
2016-04-28T14:44:54.980Z,8.4
2016-04-28T14:48:05.505Z,8.4
2016-04-28T14:51:19.952Z,8.3
2016-04-28T14:54:37.241Z,8.2
2016-04-28T14:57:39.967Z,8
2016-04-28T15:00:52.570Z,7.9
2016-04-28T15:04:04.956Z,7.8
2016-04-28T15:07:17.778Z,7.7
2016-04-28T15:10:35.158Z,7.7
2016-04-28T15:13:38.123Z,8
2016-04-28T15:16:48.478Z,8.1
2016-04-28T15:20:01.042Z,8.1
2016-04-28T15:23:13.712Z,8
2016-04-28T15:26:31.289Z,7.6
2016-04-28T15:29:39.018Z,7.3
2016-04-28T15:32:41.513Z,7
2016-04-28T15:35:54.085Z,7
2016-04-28T15:39:06.581Z,6.9
2016-04-28T15:42:19.339Z,7
2016-04-28T15:45:36.675Z,7
2016-04-28T15:48:39.448Z,7.1
2016-04-28T15:51:51.988Z,7.1
2016-04-28T15:55:04.527Z,6.9
2016-04-28T15:58:16.725Z,6.7
2016-04-28T16:01:33.796Z,6.6
2016-04-28T16:04:36.257Z,6.7
2016-04-28T16:07:48.906Z,6.6
2016-04-28T16:11:00.508Z,6.6
2016-04-28T16:14:13.143Z,6.5
2016-04-28T16:17:25.402Z,6.4
2016-04-28T16:20:36.925Z,6.2
2016-04-28T16:23:49.292Z,6.1
2016-04-28T16:27:01.707Z,5.9
2016-04-28T16:30:14.061Z,5.8
2016-04-28T16:33:31.413Z,5.6
2016-04-28T16:36:38.812Z,5.3
2016-04-28T16:39:45.305Z,5.3
2016-04-28T16:42:53.329Z,5.2
2016-04-28T16:46:05.555Z,5.2
2016-04-28T16:49:18.019Z,5.2
2016-04-28T16:52:35.512Z,5.2
2016-04-28T16:55:38.066Z,5.2
2016-04-28T16:58:50.497Z,5.3
2016-04-28T17:02:02.927Z,5.4
2016-04-28T17:05:15.328Z,5.5
2016-04-28T17:08:24.226Z,5.5
2016-04-28T17:11:36.579Z,5.5
2016-04-28T17:14:47.024Z,5.6
2016-04-28T17:18:01.345Z,5.7
2016-04-28T17:21:13.933Z,5.7
2016-04-28T17:24:25.488Z,5.8
2016-04-28T17:27:41.262Z,5.8
2016-04-28T17:30:43.833Z,5.7
2016-04-28T17:33:55.372Z,5.6
2016-04-28T17:37:07.896Z,5.5
2016-04-28T17:40:20.250Z,5.5
2016-04-28T17:43:37.617Z,5.6
2016-04-28T17:46:40.360Z,5.6
2016-04-28T17:49:52.774Z,5.5
2016-04-28T17:53:05.438Z,5.4
2016-04-28T17:56:18.012Z,5.3
2016-04-28T17:59:35.441Z,5.2
2016-04-28T18:02:38.341Z,5
2016-04-28T18:05:50.551Z,4.9
2016-04-28T18:09:02.622Z,4.8
2016-04-28T18:12:13.224Z,4.8
2016-04-28T18:15:32.650Z,4.8
2016-04-28T18:18:40.220Z,4.8
2016-04-28T18:21:42.650Z,4.8
2016-04-28T18:24:55.049Z,4.7
2016-04-28T18:28:07.573Z,4.7
2016-04-28T18:31:20.130Z,4.6
2016-04-28T18:34:37.592Z,4.5
2016-04-28T18:37:40.037Z,4.5
2016-04-28T18:40:50.764Z,4.4
2016-04-28T18:44:03.084Z,4.3
2016-04-28T18:47:15.452Z,4.3
2016-04-28T18:50:32.680Z,4.2
2016-04-28T18:53:40.127Z,4.1
2016-04-28T18:56:42.604Z,4.1
2016-04-28T18:59:54.862Z,4.1
2016-04-28T19:03:07.120Z,4
2016-04-28T19:06:19.740Z,3.9
2016-04-28T19:09:37.311Z,3.9
2016-04-28T19:12:39.804Z,3.8
2016-04-28T19:15:52.155Z,3.8
2016-04-28T19:19:04.475Z,3.7
2016-04-28T19:22:16.661Z,3.7
2016-04-28T19:25:33.674Z,3.7
2016-04-28T19:28:41.588Z,3.7
2016-04-28T19:31:41.525Z,3.6
2016-04-28T19:34:56.989Z,3.5
2016-04-28T19:38:06.216Z,3.5
2016-04-28T19:41:17.552Z,3.4
2016-04-28T19:44:35.453Z,3.4
2016-04-28T19:47:38.125Z,3.4
2016-04-28T19:50:45.961Z,3.4
2016-04-28T19:54:00.376Z,3.4
2016-04-28T19:57:12.759Z,3.5
2016-04-28T20:00:25.062Z,3.4
2016-04-28T20:03:37.398Z,3.4
2016-04-28T20:06:49.751Z,3.5
2016-04-28T20:10:02.087Z,3.5
2016-04-28T20:13:14.439Z,3.4
2016-04-28T20:16:31.839Z,3.5
2016-04-28T20:19:39.191Z,3.5
2016-04-28T20:22:41.621Z,3.6
2016-04-28T20:25:53.661Z,3.6
2016-04-28T20:29:05.997Z,3.7
2016-04-28T20:32:18.505Z,3.7
2016-04-28T20:35:35.906Z,3.6
2016-04-28T20:38:38.398Z,3.6
2016-04-28T20:41:50.423Z,3.5
2016-04-28T20:45:03.275Z,3.4
2016-04-28T20:48:14.908Z,3.4
2016-04-28T20:51:32.136Z,3.3
2016-04-28T20:54:39.691Z,3.3
2016-04-28T20:57:42.074Z,3.3
2016-04-28T21:00:54.146Z,3.3
2016-04-28T21:04:06.232Z,3.2
2016-04-28T21:07:18.490Z,3.2
2016-04-28T21:10:33.031Z,3.2
2016-04-28T21:13:40.477Z,3.1
2016-04-28T21:16:42.782Z,3.1
2016-04-28T21:19:55.119Z,3
2016-04-28T21:23:07.439Z,2.9
2016-04-28T21:26:19.681Z,2.8
2016-04-28T21:29:37.238Z,2.8
2016-04-28T21:32:39.262Z,2.8
2016-04-28T21:35:51.255Z,2.7
2016-04-28T21:39:03.560Z,2.8
2016-04-28T21:42:13.490Z,2.7
2016-04-28T21:45:22.298Z,2.7
2016-04-28T21:48:39.633Z,2.6
2016-04-28T21:51:41.939Z,2.5
2016-04-28T21:54:54.197Z,2.5
2016-04-28T21:58:04.299Z,2.5
2016-04-28T22:01:18.649Z,2.5
2016-04-28T22:04:35.458Z,2.5
2016-04-28T22:07:37.841Z,2.4
2016-04-28T22:10:48.412Z,2.4
2016-04-28T22:14:03.607Z,2.4
2016-04-28T22:17:11.381Z,2.4
2016-04-28T22:20:23.392Z,2.4
2016-04-28T22:23:40.884Z,2.3
2016-04-28T22:26:43.220Z,2.3
2016-04-28T22:29:55.462Z,2.3
2016-04-28T22:33:11.330Z,2.3
2016-04-28T22:36:19.229Z,2.2
2016-04-28T22:39:33.114Z,2.3
2016-04-28T22:42:40.451Z,2.2
2016-04-28T22:45:42.818Z,2.2
2016-04-28T22:48:51.201Z,2.3
2016-04-28T22:51:59.803Z,2.2
2016-04-28T22:55:11.795Z,2.2
2016-04-28T22:58:27.760Z,2.1
2016-04-28T23:01:40.955Z,2
2016-04-28T23:04:43.244Z,2
2016-04-28T23:07:55.159Z,2
2016-04-28T23:11:07.574Z,1.9
2016-04-28T23:14:19.315Z,1.9
2016-04-28T23:17:36.717Z,1.8
2016-04-28T23:20:39.131Z,1.7
2016-04-28T23:23:49.327Z,1.7
2016-04-28T23:27:03.475Z,1.7
2016-04-28T23:30:15.858Z,1.7
2016-04-28T23:33:33.197Z,1.6
2016-04-28T23:36:40.362Z,1.6
2016-04-28T23:39:42.666Z,1.6
2016-04-28T23:42:55.034Z,1.6
2016-04-28T23:46:07.104Z,1.5
2016-04-28T23:49:19.144Z,1.5
2016-04-28T23:52:36.389Z,1.4
2016-04-28T23:55:38.631Z,1.4
2016-04-28T23:58:50.483Z,1.4
